Time;durP1;ratioP1;P1;durP2;ratioP2;P2;SDS_P1;SDS_P2;PMS_P1;PMS_P2;Temp;Humidity;BMP_temperature;BMP_pressure;BME280_temperature;BME280_humidity;BME280_pressure;Samples;Min_cycle;Max_cycle;Signal;HPM_P1;HPM_P2
2023/06/26 00:05:38;;;;;;;18.03;8.17;;;19.10;1.00;;;;;;4980333;28;20480;-80
2023/06/26 00:08:08;;;;;;;11.03;7.73;;;19.10;1.00;;;;;;4992485;28;20892;-80
2023/06/26 00:11:27;;;;;;;13.57;7.70;;;19.00;1.00;;;;;;5011343;28;20420;-80
2023/06/26 00:14:31;;;;;;;14.00;6.87;;;19.00;1.00;;;;;;4998607;28;20999;-80
2023/06/26 00:17:02;;;;;;;11.10;7.50;;;18.90;1.00;;;;;;4995393;28;20867;-80
2023/06/26 00:19:56;;;;;;;12.13;7.27;;;18.90;1.00;;;;;;4994232;28;20771;-80
2023/06/26 00:22:40;;;;;;;13.73;8.67;;;18.80;1.00;;;;;;4998338;28;20825;-80
2023/06/26 00:25:26;;;;;;;11.53;6.70;;;18.80;1.00;;;;;;4996072;28;20459;-73
2023/06/26 00:27:51;;;;;;;8.77;6.70;;;18.80;1.00;;;;;;4996155;28;20440;-74
2023/06/26 00:30:18;;;;;;;10.80;7.47;;;18.70;1.00;;;;;;4993171;28;20490;-74
2023/06/26 00:32:43;;;;;;;9.50;7.40;;;18.60;1.00;;;;;;4997615;28;20186;-74
2023/06/26 00:35:09;;;;;;;11.60;7.63;;;18.60;1.00;;;;;;4996593;28;20969;-74
2023/06/26 00:37:44;;;;;;;10.27;7.33;;;18.50;1.00;;;;;;5002294;28;20191;-74
2023/06/26 00:40:14;;;;;;;13.60;7.87;;;18.50;1.00;;;;;;4995540;28;20252;-74
2023/06/26 00:42:40;;;;;;;10.07;6.63;;;18.40;1.00;;;;;;4995993;28;20447;-74
2023/06/26 00:45:08;;;;;;;12.60;7.63;;;18.40;1.00;;;;;;5009662;28;20459;-73
2023/06/26 00:47:34;;;;;;;13.27;8.00;;;18.30;1.00;;;;;;4995786;28;20215;-73
2023/06/26 00:50:03;;;;;;;11.00;7.67;;;18.30;1.00;;;;;;4995183;28;20434;-74
2023/06/26 00:52:32;;;;;;;11.43;7.70;;;18.30;1.00;;;;;;4995395;28;20931;-74
2023/06/26 00:55:26;;;;;;;10.60;8.07;;;18.20;1.00;;;;;;4990250;28;20475;-80
2023/06/26 00:57:56;;;;;;;12.47;8.10;;;18.20;1.00;;;;;;4995331;28;20448;-80
2023/06/26 01:00:26;;;;;;;8.63;7.50;;;18.20;1.00;;;;;;5006550;28;20941;-80
2023/06/26 01:02:58;;;;;;;13.27;8.53;;;18.10;1.00;;;;;;5002607;28;20439;-80
2023/06/26 01:06:20;;;;;;;10.30;7.40;;;18.00;1.00;;;;;;5003663;28;20873;-80
2023/06/26 01:08:46;;;;;;;9.37;7.70;;;18.00;1.00;;;;;;4994406;28;20519;-74
2023/06/26 01:11:13;;;;;;;10.50;8.00;;;17.90;1.00;;;;;;4995033;28;20911;-74
2023/06/26 01:13:41;;;;;;;9.87;7.70;;;17.90;1.00;;;;;;4996046;28;20447;-74
2023/06/26 01:16:06;;;;;;;15.60;8.13;;;17.90;1.00;;;;;;4997778;28;20440;-74
2023/06/26 01:18:45;;;;;;;12.87;7.53;;;17.80;1.00;;;;;;4997689;28;20454;-74
2023/06/26 01:21:15;;;;;;;11.63;7.90;;;17.70;1.00;;;;;;4998109;28;20449;-74
2023/06/26 01:24:06;;;;;;;11.60;8.50;;;17.60;1.00;;;;;;4996241;28;20426;-74
2023/06/26 01:26:35;;;;;;;11.20;7.90;;;17.60;1.00;;;;;;4996843;28;20954;-74
2023/06/26 01:29:04;;;;;;;12.10;7.40;;;17.60;1.00;;;;;;4996098;28;20443;-74
2023/06/26 01:31:30;;;;;;;9.83;7.77;;;17.60;1.00;;;;;;5007815;28;20418;-74
2023/06/26 01:33:58;;;;;;;12.30;7.80;;;17.50;1.00;;;;;;5003101;28;20467;-74
2023/06/26 01:36:32;;;;;;;15.40;8.10;;;17.50;1.00;;;;;;4992767;28;20444;-74
2023/06/26 01:39:26;;;;;;;21.57;8.57;;;17.50;1.00;;;;;;4991783;28;20468;-80
2023/06/26 01:41:56;;;;;;;10.20;7.90;;;17.40;1.00;;;;;;5012110;28;20467;-80
2023/06/26 01:44:36;;;;;;;12.63;8.60;;;17.40;1.00;;;;;;5004537;28;20488;-80
2023/06/26 01:47:55;;;;;;;14.03;7.97;;;17.40;1.00;;;;;;5010948;28;20444;-80
2023/06/26 01:50:30;;;;;;;11.33;8.17;;;17.30;1.00;;;;;;4989816;28;20414;-80
2023/06/26 01:53:12;;;;;;;14.90;9.13;;;17.30;1.00;;;;;;5006318;28;20459;-80
2023/06/26 01:56:14;;;;;;;12.50;8.13;;;17.20;1.00;;;;;;5002174;28;20525;-80
2023/06/26 01:58:57;;;;;;;11.93;8.50;;;17.20;1.00;;;;;;4998209;28;20438;-80
2023/06/26 02:01:56;;;;;;;12.50;7.63;;;17.20;1.00;;;;;;4994577;28;20454;-80
2023/06/26 02:04:21;;;;;;;11.93;8.87;;;17.10;1.00;;;;;;4992112;28;20528;-80
2023/06/26 02:06:56;;;;;;;17.80;8.77;;;17.00;1.00;;;;;;4999714;28;20558;-80
2023/06/26 02:09:26;;;;;;;14.70;9.30;;;17.00;1.00;;;;;;5014934;28;20194;-80
2023/06/26 02:12:26;;;;;;;13.63;8.60;;;16.90;1.00;;;;;;5006422;28;20514;-80
2023/06/26 02:18:57;;;;;;;14.30;9.40;;;16.80;1.00;;;;;;4977245;28;20866;-80
2023/06/26 02:21:26;;;;;;;15.37;8.60;;;16.80;1.00;;;;;;4999959;28;20411;-79
2023/06/26 02:23:56;;;;;;;14.03;8.60;;;16.80;1.00;;;;;;4988604;28;20923;-83
2023/06/26 02:26:26;;;;;;;13.80;8.70;;;16.80;1.00;;;;;;5020261;28;20834;-81
2023/06/26 02:29:02;;;;;;;12.80;8.90;;;16.80;1.00;;;;;;4994075;28;20903;-81
2023/06/26 02:34:56;;;;;;;18.20;8.73;;;16.70;1.00;;;;;;5004618;28;20975;-81
2023/06/26 02:37:26;;;;;;;17.63;9.20;;;16.70;1.00;;;;;;4983400;28;20405;-81
2023/06/26 02:39:56;;;;;;;12.70;8.17;;;16.70;1.00;;;;;;4984975;28;20403;-81
2023/06/26 02:42:26;;;;;;;22.87;9.10;;;16.60;1.00;;;;;;4989481;28;20442;-80
2023/06/26 02:45:26;;;;;;;11.87;9.07;;;16.60;1.00;;;;;;5006289;28;20832;-82
2023/06/26 02:48:20;;;;;;;11.17;8.27;;;16.60;1.00;;;;;;4979085;28;20442;-81
2023/06/26 02:50:56;;;;;;;14.23;8.67;;;16.50;1.00;;;;;;5004446;28;20431;-81
2023/06/26 02:53:56;;;;;;;14.40;8.90;;;16.50;1.00;;;;;;4999196;28;20435;-81
2023/06/26 02:56:38;;;;;;;12.90;8.80;;;16.50;1.00;;;;;;5000874;28;20932;-80
2023/06/26 02:59:15;;;;;;;14.73;9.63;;;16.50;1.00;;;;;;4989176;28;20444;-82
2023/06/26 03:02:14;;;;;;;14.80;9.57;;;16.40;1.00;;;;;;4974738;28;20435;-81
2023/06/26 03:04:39;;;;;;;13.60;8.97;;;16.40;1.00;;;;;;4979251;28;20862;-81
2023/06/26 03:07:55;;;;;;;16.53;9.67;;;16.40;1.00;;;;;;4988584;28;20510;-81
2023/06/26 03:10:21;;;;;;;15.33;9.00;;;16.30;1.00;;;;;;4986539;28;20187;-80
2023/06/26 03:12:56;;;;;;;16.07;8.50;;;16.30;1.00;;;;;;4984495;28;20411;-80
2023/06/26 03:15:26;;;;;;;16.10;9.23;;;16.30;1.00;;;;;;5000193;28;20739;-80
2023/06/26 03:17:56;;;;;;;13.87;8.40;;;16.30;1.00;;;;;;4993743;28;20973;-80
2023/06/26 03:20:26;;;;;;;12.47;8.70;;;16.20;1.00;;;;;;4990712;28;20435;-80
2023/06/26 03:23:02;;;;;;;14.00;8.43;;;16.10;1.00;;;;;;5019729;28;20874;-80
2023/06/26 03:25:38;;;;;;;13.33;9.10;;;16.10;1.00;;;;;;5006241;28;20456;-80
2023/06/26 03:28:14;;;;;;;13.13;9.00;;;16.20;1.00;;;;;;4994517;28;20436;-80
2023/06/26 03:30:56;;;;;;;12.30;8.90;;;16.20;1.00;;;;;;5001773;28;20922;-80
2023/06/26 03:33:26;;;;;;;12.83;8.13;;;16.20;1.00;;;;;;5014820;28;20817;-80
2023/06/26 03:35:56;;;;;;;12.27;8.93;;;16.20;1.00;;;;;;5012335;28;20441;-80
2023/06/26 03:38:26;;;;;;;21.17;9.93;;;16.10;1.00;;;;;;5003031;28;20429;-80
2023/06/26 03:44:15;;;;;;;14.40;8.90;;;16.10;1.00;;;;;;4990596;28;20927;-80
2023/06/26 03:46:50;;;;;;;16.87;9.37;;;16.00;1.00;;;;;;5009523;28;20845;-80
2023/06/26 03:49:26;;;;;;;13.57;9.27;;;16.00;1.00;;;;;;4996956;28;20400;-80
2023/06/26 03:52:02;;;;;;;12.80;8.83;;;16.00;1.00;;;;;;4989713;28;20865;-80
2023/06/26 03:55:22;;;;;;;14.33;9.10;;;16.10;1.00;;;;;;4996880;28;20439;-80
2023/06/26 03:57:50;;;;;;;12.27;8.67;;;16.10;1.00;;;;;;4998311;28;21047;-81
2023/06/26 04:00:26;;;;;;;13.60;8.40;;;16.10;1.00;;;;;;4996916;28;20471;-80
2023/06/26 04:03:02;;;;;;;13.47;9.40;;;16.10;1.00;;;;;;5007108;28;20548;-80
2023/06/26 04:06:13;;;;;;;12.83;9.37;;;16.20;1.00;;;;;;5005549;28;20492;-79
2023/06/26 04:08:50;;;;;;;13.20;8.93;;;16.20;1.00;;;;;;5002221;28;20429;-79
2023/06/26 04:14:56;;;;;;;13.53;9.30;;;16.20;1.00;;;;;;4991221;28;20492;-80
2023/06/26 04:17:38;;;;;;;16.20;9.07;;;16.20;1.00;;;;;;4997802;28;20487;-79
2023/06/26 04:20:08;;;;;;;12.60;9.30;;;16.20;1.00;;;;;;4981861;28;20427;-80
2023/06/26 04:22:44;;;;;;;16.67;8.77;;;16.30;1.00;;;;;;4995837;28;20391;-80
2023/06/26 04:25:29;;;;;;;11.90;8.43;;;16.30;1.00;;;;;;5001371;28;20495;-80
2023/06/26 04:28:02;;;;;;;11.87;8.23;;;16.40;1.00;;;;;;4988703;28;20441;-81
2023/06/26 04:30:28;;;;;;;10.57;8.60;;;16.40;1.00;;;;;;4977237;28;20499;-80
2023/06/26 04:33:18;;;;;;;10.70;8.40;;;16.50;1.00;;;;;;4989985;28;20496;-79
2023/06/26 04:35:48;;;;;;;13.17;8.80;;;16.60;1.00;;;;;;4995307;28;20667;-79
2023/06/26 04:38:15;;;;;;;16.77;9.33;;;16.60;1.00;;;;;;5000153;28;20501;-80
2023/06/26 04:40:45;;;;;;;10.93;8.50;;;16.70;1.00;;;;;;4995723;28;20410;-81
2023/06/26 04:43:10;;;;;;;12.73;9.40;;;16.80;1.00;;;;;;5007212;28;20408;-79
2023/06/26 04:45:38;;;;;;;14.33;10.20;;;16.80;1.00;;;;;;4983776;28;20988;-79
2023/06/26 04:48:14;;;;;;;15.70;9.00;;;17.00;1.00;;;;;;4989817;28;20182;-81
2023/06/26 04:50:53;;;;;;;16.63;9.20;;;17.00;1.00;;;;;;5005944;28;20440;-82
2023/06/26 04:53:32;;;;;;;15.43;10.30;;;17.20;1.00;;;;;;5008081;28;20431;-82
2023/06/26 04:56:14;;;;;;;12.70;8.70;;;17.20;1.00;;;;;;4990020;28;20432;-81
2023/06/26 04:58:56;;;;;;;12.13;9.17;;;17.40;1.00;;;;;;5000688;28;20415;-82
2023/06/26 05:01:56;;;;;;;14.20;9.20;;;17.40;1.00;;;;;;4994452;28;20493;-82
2023/06/26 05:04:26;;;;;;;13.53;8.90;;;17.50;1.00;;;;;;4997327;28;20449;-82
2023/06/26 05:07:02;;;;;;;10.83;8.20;;;17.70;1.00;;;;;;5013031;28;20466;-82
2023/06/26 05:09:28;;;;;;;20.83;8.80;;;17.80;1.00;;;;;;4997331;28;20465;-82
2023/06/26 05:12:08;;;;;;;10.83;7.90;;;17.90;1.00;;;;;;5011134;28;20427;-80
2023/06/26 05:14:34;;;;;;;11.93;8.70;;;18.00;1.00;;;;;;5023815;28;20172;-80
2023/06/26 05:17:20;;;;;;;19.80;8.33;;;18.10;1.00;;;;;;4997077;28;20434;-80
2023/06/26 05:19:46;;;;;;;9.83;7.67;;;18.30;1.00;;;;;;4979816;28;20213;-80
2023/06/26 05:22:32;;;;;;;18.23;10.17;;;18.50;1.00;;;;;;5020479;28;20431;-80
2023/06/26 05:25:09;;;;;;;13.97;9.23;;;18.50;1.00;;;;;;5000522;28;20416;-80
2023/06/26 05:28:04;;;;;;;11.63;8.90;;;18.70;1.00;;;;;;4994684;28;20778;-79
2023/06/26 05:30:38;;;;;;;11.00;8.20;;;18.80;1.00;;;;;;5008612;28;20385;-80
2023/06/26 05:33:11;;;;;;;11.60;9.10;;;19.00;1.00;;;;;;5007225;28;20377;-80
2023/06/26 05:35:37;;;;;;;14.47;8.20;;;19.10;1.00;;;;;;4992431;28;20501;-80
2023/06/26 05:38:08;;;;;;;12.40;8.10;;;19.50;1.00;;;;;;4990794;28;20516;-80
2023/06/26 05:40:40;;;;;;;10.90;8.20;;;19.50;1.00;;;;;;4999001;28;20174;-80
2023/06/26 05:43:08;;;;;;;12.87;8.77;;;19.90;1.00;;;;;;5010588;28;20528;-83
2023/06/26 05:45:50;;;;;;;12.17;8.60;;;20.00;1.00;;;;;;4997193;28;20478;-82
2023/06/26 05:48:16;;;;;;;15.77;9.10;;;20.20;1.00;;;;;;5007725;28;20433;-83
2023/06/26 05:50:56;;;;;;;16.33;9.17;;;20.40;1.00;;;;;;4993169;28;20508;-83
2023/06/26 05:53:44;;;;;;;16.77;10.70;;;20.50;1.00;;;;;;4981893;28;20249;-83
2023/06/26 05:56:36;;;;;;;12.97;9.50;;;20.70;1.00;;;;;;4986957;28;20431;-84
2023/06/26 05:59:05;;;;;;;12.27;9.27;;;20.70;1.00;;;;;;4992489;28;20433;-83
2023/06/26 06:01:38;;;;;;;16.00;9.30;;;20.90;1.00;;;;;;4990606;28;20447;-83
2023/06/26 06:04:14;;;;;;;17.40;9.10;;;21.00;1.00;;;;;;4994388;28;20514;-83
2023/06/26 06:07:02;;;;;;;15.20;10.00;;;21.20;1.00;;;;;;4999084;28;20481;-83
2023/06/26 06:09:44;;;;;;;17.70;9.97;;;21.40;1.00;;;;;;5005982;28;20442;-83
2023/06/26 06:12:10;;;;;;;14.90;9.60;;;21.50;1.00;;;;;;4994085;28;20935;-83
2023/06/26 06:14:56;;;;;;;13.17;9.30;;;21.60;1.00;;;;;;4985215;28;20457;-82
2023/06/26 06:17:56;;;;;;;14.70;9.50;;;21.80;1.00;;;;;;4989198;28;20537;-83
2023/06/26 06:20:26;;;;;;;13.07;9.13;;;22.10;1.00;;;;;;4987194;28;20435;-84
2023/06/26 06:23:20;;;;;;;15.00;8.97;;;22.10;1.00;;;;;;5009697;28;20464;-84
2023/06/26 06:29:08;;;;;;;16.60;8.10;;;22.30;1.00;;;;;;5012687;28;20764;-82
2023/06/26 06:35:14;;;;;;;16.53;7.73;;;22.40;1.00;;;;;;5003575;28;20826;-83
2023/06/26 06:37:50;;;;;;;13.00;7.70;;;22.60;1.00;;;;;;5003201;28;20422;-82
2023/06/26 06:40:22;;;;;;;11.73;7.53;;;22.80;1.00;;;;;;5005509;28;20429;-82
2023/06/26 06:43:32;;;;;;;12.23;8.53;;;23.00;1.00;;;;;;5000992;28;20513;-84
2023/06/26 06:46:08;;;;;;;11.50;7.33;;;23.00;1.00;;;;;;4986688;28;20501;-84
2023/06/26 06:51:56;;;;;;;12.13;7.67;;;23.40;1.00;;;;;;4996902;28;20606;-84
2023/06/26 06:54:22;;;;;;;9.57;7.23;;;23.60;1.00;;;;;;4992731;28;21010;-84
2023/06/26 07:00:14;;;;;;;11.20;6.93;;;23.80;1.00;;;;;;5000068;28;20445;-84
2023/06/26 07:02:43;;;;;;;11.80;7.20;;;24.00;1.00;;;;;;5017689;28;20436;-84
2023/06/26 07:05:09;;;;;;;9.80;7.30;;;24.00;1.00;;;;;;5004044;28;20479;-84
2023/06/26 07:07:56;;;;;;;9.40;7.40;;;24.10;1.00;;;;;;5003194;28;20486;-84
2023/06/26 07:10:50;;;;;;;9.40;7.33;;;24.20;1.00;;;;;;4983925;28;20407;-84
2023/06/26 07:13:32;;;;;;;13.73;7.67;;;24.40;1.00;;;;;;5007976;28;20415;-84
2023/06/26 07:19:20;;;;;;;11.57;7.87;;;24.80;1.00;;;;;;4988677;28;20414;-84
2023/06/26 07:22:08;;;;;;;8.10;6.53;;;24.90;1.00;;;;;;5003162;28;20426;-84
2023/06/26 07:25:03;;;;;;;10.73;6.87;;;25.10;1.00;;;;;;4998835;28;20191;-84
2023/06/26 07:27:39;;;;;;;14.30;7.20;;;25.20;1.00;;;;;;5014136;28;20431;-83
2023/06/26 07:30:32;;;;;;;8.60;7.10;;;25.40;1.00;;;;;;5003805;28;20424;-84
2023/06/26 07:36:26;;;;;;;16.47;7.60;;;25.70;1.00;;;;;;5003410;28;20378;-84
2023/06/26 07:39:02;;;;;;;15.03;7.63;;;26.00;1.00;;;;;;5000892;28;20419;-84
2023/06/26 07:41:38;;;;;;;8.40;6.90;;;26.10;1.00;;;;;;5008257;28;20416;-84
2023/06/26 07:44:38;;;;;;;9.80;7.10;;;26.20;1.00;;;;;;4985158;28;20429;-82
2023/06/26 07:47:26;;;;;;;9.77;6.97;;;26.20;1.00;;;;;;5008120;28;20466;-82
2023/06/26 07:50:26;;;;;;;13.10;6.77;;;26.30;1.00;;;;;;4996906;28;20427;-82
2023/06/26 07:52:53;;;;;;;10.57;6.80;;;26.50;1.00;;;;;;4996186;28;20424;-82
2023/06/26 07:55:18;;;;;;;12.80;6.60;;;26.60;1.00;;;;;;4996895;28;20434;-83
2023/06/26 07:57:56;;;;;;;12.90;6.73;;;26.90;1.00;;;;;;4993742;28;20476;-84
2023/06/26 08:00:56;;;;;;;9.10;6.50;;;27.00;1.00;;;;;;5006328;28;20181;-84
2023/06/26 08:03:32;;;;;;;8.23;6.30;;;27.00;1.00;;;;;;5006055;28;20472;-84
2023/06/26 08:05:58;;;;;;;13.50;6.67;;;27.00;1.00;;;;;;5005921;28;20470;-84
2023/06/26 08:08:26;;;;;;;9.97;6.60;;;27.10;1.00;;;;;;5022107;28;20437;-84
2023/06/26 08:10:52;;;;;;;10.63;6.67;;;27.20;1.00;;;;;;5005725;28;20186;-84
2023/06/26 08:13:38;;;;;;;12.53;6.57;;;27.40;1.00;;;;;;5000790;28;20426;-84
2023/06/26 08:19:26;;;;;;;7.50;5.73;;;28.00;1.00;;;;;;5002547;28;20447;-84
2023/06/26 08:21:56;;;;;;;9.30;5.80;;;28.30;1.00;;;;;;5004345;28;20424;-84
2023/06/26 08:24:26;;;;;;;10.60;6.77;;;28.50;1.00;;;;;;5003098;28;20174;-85
2023/06/26 08:27:38;;;;;;;11.80;6.37;;;28.70;1.00;;;;;;4998370;28;20462;-85
2023/06/26 08:30:09;;;;;;;7.73;6.13;;;28.70;1.00;;;;;;4997205;28;20454;-84
2023/06/26 08:35:56;;;;;;;9.00;6.10;;;29.00;1.00;;;;;;5010249;28;20450;-84
2023/06/26 08:38:22;;;;;;;9.17;6.77;;;29.00;1.00;;;;;;5024487;28;20423;-84
2023/06/26 08:40:56;;;;;;;12.03;6.40;;;28.80;1.00;;;;;;5003530;28;20183;-84
2023/06/26 08:43:28;;;;;;;11.03;6.80;;;28.90;1.00;;;;;;4999464;28;20188;-82
2023/06/26 08:45:57;;;;;;;8.50;6.50;;;28.60;1.00;;;;;;5011770;28;20459;-83
2023/06/26 08:49:10;;;;;;;8.63;6.07;;;28.40;1.00;;;;;;5002450;28;20910;-82
2023/06/26 08:52:01;;;;;;;14.20;6.47;;;28.40;1.00;;;;;;4992343;28;20788;-82
2023/06/26 08:54:54;;;;;;;9.10;7.03;;;28.60;1.00;;;;;;5006082;28;20424;-82
2023/06/26 08:57:27;;;;;;;10.97;6.50;;;28.50;1.00;;;;;;4993147;28;20483;-82
2023/06/26 08:59:57;;;;;;;9.60;5.90;;;28.50;1.00;;;;;;5000676;28;20433;-84
2023/06/26 09:02:56;;;;;;;8.33;6.57;;;28.60;1.00;;;;;;4996429;28;20892;-84
2023/06/26 09:05:38;;;;;;;9.60;6.30;;;28.90;1.00;;;;;;4988758;28;20834;-84
2023/06/26 09:08:08;;;;;;;9.70;6.20;;;28.80;1.00;;;;;;5007312;28;20433;-84
2023/06/26 09:13:56;;;;;;;8.87;5.70;;;29.20;1.00;;;;;;5001180;28;20478;-85
2023/06/26 09:23:32;;;;;;;13.53;6.20;;;29.20;1.00;;;;;;5002519;28;20494;-84
2023/06/26 09:26:32;;;;;;;11.90;6.30;;;29.40;1.00;;;;;;4997518;28;20468;-83
2023/06/26 09:28:58;;;;;;;8.27;6.13;;;29.70;1.00;;;;;;4997704;28;20429;-83
2023/06/26 09:31:51;;;;;;;8.20;6.30;;;29.90;1.00;;;;;;4993127;28;20425;-83
2023/06/26 09:34:46;;;;;;;9.73;6.03;;;29.90;1.00;;;;;;5005815;28;20431;-83
2023/06/26 09:37:13;;;;;;;6.50;5.90;;;30.00;1.00;;;;;;4979245;28;20424;-82
2023/06/26 09:40:03;;;;;;;7.97;5.50;;;30.10;1.00;;;;;;5007300;28;20961;-83
2023/06/26 09:42:38;;;;;;;6.20;5.33;;;30.30;1.00;;;;;;4993380;28;20421;-83
2023/06/26 09:45:18;;;;;;;6.83;6.00;;;30.30;1.00;;;;;;5006803;28;20415;-85
2023/06/26 09:47:44;;;;;;;7.90;5.43;;;30.40;1.00;;;;;;5002048;28;20436;-81
2023/06/26 09:50:24;;;;;;;12.17;5.70;;;30.50;1.00;;;;;;4984572;28;20953;-81
2023/06/26 09:53:15;;;;;;;8.33;6.07;;;30.80;1.00;;;;;;4974776;28;20820;-81
2023/06/26 09:55:50;;;;;;;7.43;6.10;;;31.20;1.00;;;;;;4987455;28;20416;-81
2023/06/26 09:58:22;;;;;;;12.70;5.53;;;31.20;1.00;;;;;;4995912;28;20515;-81
2023/06/26 10:01:03;;;;;;;9.30;5.60;;;31.30;1.00;;;;;;4992691;28;20421;-81
2023/06/26 10:03:59;;;;;;;8.73;5.97;;;31.10;1.00;;;;;;4981094;28;20420;-81
2023/06/26 10:06:31;;;;;;;6.73;5.90;;;31.50;1.00;;;;;;4987692;28;20473;-81
2023/06/26 10:09:03;;;;;;;6.87;5.90;;;31.50;1.00;;;;;;4976906;28;20485;-81
2023/06/26 10:12:05;;;;;;;6.57;5.67;;;31.40;1.00;;;;;;4990017;28;20436;-81
2023/06/26 10:14:45;;;;;;;13.33;6.20;;;31.30;1.00;;;;;;5005660;28;21265;-82
2023/06/26 10:17:13;;;;;;;6.70;5.50;;;31.50;1.00;;;;;;5004720;28;20806;-82
2023/06/26 10:20:02;;;;;;;17.33;5.50;;;31.70;1.00;;;;;;5013812;28;20425;-83
2023/06/26 10:26:03;;;;;;;9.87;5.20;;;31.70;1.00;;;;;;4994430;28;20484;-82
2023/06/26 10:28:52;;;;;;;5.50;5.00;;;31.90;1.00;;;;;;4994614;28;20405;-82
2023/06/26 10:31:56;;;;;;;4.90;4.20;;;31.50;1.00;;;;;;4975820;28;20819;-81
2023/06/26 10:34:33;;;;;;;5.40;4.80;;;31.40;1.00;;;;;;5012671;28;20481;-82
2023/06/26 10:40:28;;;;;;;8.63;4.30;;;31.10;1.00;;;;;;5006841;28;20523;-82
2023/06/26 10:43:11;;;;;;;7.03;4.47;;;31.00;1.00;;;;;;5013552;28;20782;-82
2023/06/26 10:46:14;;;;;;;6.13;5.10;;;30.80;1.00;;;;;;5007762;28;20863;-82
2023/06/26 10:49:17;;;;;;;9.00;4.70;;;31.10;1.00;;;;;;5009769;28;20423;-82
2023/06/26 10:52:02;;;;;;;8.97;5.13;;;31.30;1.00;;;;;;5010843;28;20459;-82
2023/06/26 10:54:45;;;;;;;12.23;5.00;;;31.30;1.00;;;;;;4994694;28;20424;-83
2023/06/26 10:57:24;;;;;;;5.13;4.63;;;31.40;1.00;;;;;;4994873;28;20444;-80
2023/06/26 11:00:32;;;;;;;5.73;4.80;;;31.20;1.00;;;;;;5000922;28;20810;-85
2023/06/26 11:09:57;;;;;;;10.73;5.00;;;;;;;;;;5005473;28;21018;-86
2023/06/26 11:13:02;;;;;;;6.07;4.97;;;31.50;1.00;;;;;;5009983;28;20424;-92
2023/06/26 11:16:02;;;;;;;8.10;4.43;;;31.50;1.00;;;;;;5004256;28;20479;-91
2023/06/26 11:18:28;;;;;;;8.23;4.73;;;31.40;1.00;;;;;;4994138;28;20413;-84
2023/06/26 11:24:33;;;;;;;5.33;4.60;;;31.70;1.00;;;;;;5000660;28;20400;-86
2023/06/26 11:30:25;;;;;;;6.40;4.90;;;31.40;1.00;;;;;;4997234;28;20441;-86
2023/06/26 11:36:13;;;;;;;10.20;5.10;;;31.70;1.00;;;;;;4975149;28;20452;-85
2023/06/26 11:39:14;;;;;;;8.77;5.10;;;31.80;1.00;;;;;;4999963;28;20427;-86
2023/06/26 11:42:12;;;;;;;7.90;5.47;;;32.10;1.00;;;;;;5008711;28;20177;-86
2023/06/26 11:45:09;;;;;;;8.13;4.63;;;32.20;1.00;;;;;;4996761;28;20432;-86
2023/06/26 11:51:27;;;;;;;9.53;4.90;;;32.00;1.00;;;;;;4997269;28;20462;-85
2023/06/26 11:57:23;;;;;;;6.57;5.13;;;32.10;1.00;;;;;;5002784;28;20609;-86
2023/06/26 12:06:36;;;;;;;4.87;4.47;;;33.00;1.00;;;;;;5002829;28;20475;-85
2023/06/26 12:09:44;;;;;;;7.30;4.70;;;33.40;1.00;;;;;;5003868;28;20872;-86
2023/06/26 12:15:32;;;;;;;8.20;5.40;;;33.60;1.00;;;;;;4990965;28;20431;-83
2023/06/26 12:18:44;;;;;;;9.50;5.13;;;33.40;1.00;;;;;;5025148;28;20447;-83
2023/06/26 12:21:37;;;;;;;8.30;4.80;;;33.20;1.00;;;;;;5010148;28;20176;-83
2023/06/26 12:24:23;;;;;;;7.70;4.17;;;33.00;1.00;;;;;;5007680;28;20529;-82
2023/06/26 12:27:02;;;;;;;4.93;4.53;;;33.00;1.00;;;;;;5015105;28;20815;-82
2023/06/26 12:30:03;;;;;;;6.10;5.20;;;32.70;1.00;;;;;;5001908;28;20420;-82
2023/06/26 12:32:34;;;;;;;8.10;5.00;;;32.50;1.00;;;;;;4985378;28;20424;-85
2023/06/26 12:38:56;;;;;;;7.20;5.03;;;32.20;1.00;;;;;;4993112;28;20427;-85
2023/06/26 12:41:24;;;;;;;6.27;4.80;;;32.10;1.00;;;;;;5000491;28;20428;-85
2023/06/26 12:44:17;;;;;;;8.37;4.83;;;32.10;1.00;;;;;;5003433;28;20440;-86
2023/06/26 12:47:01;;;;;;;9.93;5.37;;;32.00;1.00;;;;;;5000597;28;20460;-83
2023/06/26 12:52:48;;;;;;;13.70;5.63;;;32.20;1.00;;;;;;5009474;28;20424;-83
2023/06/26 12:55:16;;;;;;;7.10;5.10;;;32.20;1.00;;;;;;5008323;28;20891;-83
2023/06/26 12:57:51;;;;;;;8.23;5.13;;;32.20;1.00;;;;;;5014619;28;20184;-83
2023/06/26 13:00:33;;;;;;;13.10;5.17;;;32.90;1.00;;;;;;5015385;28;20535;-82
2023/06/26 13:06:21;;;;;;;10.03;4.30;;;33.10;1.00;;;;;;4995149;28;21014;-83
2023/06/26 13:08:47;;;;;;;5.37;4.23;;;33.20;1.00;;;;;;4996260;28;20476;-83
2023/06/26 13:11:56;;;;;;;9.50;4.70;;;32.90;1.00;;;;;;4995194;28;20710;-83
2023/06/26 13:14:26;;;;;;;10.33;4.50;;;32.80;1.00;;;;;;4994305;28;20185;-83
2023/06/26 13:17:03;;;;;;;10.83;5.00;;;32.90;1.00;;;;;;5002451;28;20428;-82
2023/06/26 13:19:32;;;;;;;7.93;4.40;;;32.70;1.00;;;;;;5015104;28;20463;-83
2023/06/26 13:22:32;;;;;;;6.10;4.40;;;32.70;1.00;;;;;;5010233;28;20958;-82
2023/06/26 13:25:08;;;;;;;8.10;4.30;;;32.90;1.00;;;;;;5003355;28;20471;-83
2023/06/26 13:27:34;;;;;;;8.33;4.70;;;32.80;1.00;;;;;;4995473;28;20397;-82
2023/06/26 13:30:08;;;;;;;6.37;4.33;;;32.40;1.00;;;;;;4999775;28;20432;-83
2023/06/26 13:32:56;;;;;;;17.20;4.90;;;32.10;1.00;;;;;;5001402;28;20172;-82
2023/06/26 13:35:38;;;;;;;6.37;4.20;;;32.30;1.00;;;;;;5007366;28;20796;-82
2023/06/26 13:38:08;;;;;;;7.57;4.10;;;32.30;1.00;;;;;;5002099;28;20420;-83
2023/06/26 13:40:38;;;;;;;8.17;4.00;;;32.30;1.00;;;;;;5003064;28;20428;-83
2023/06/26 13:43:08;;;;;;;7.33;4.00;;;32.50;1.00;;;;;;4993885;28;20464;-83
2023/06/26 13:46:27;;;;;;;6.97;3.93;;;32.50;1.00;;;;;;4994986;28;20464;-83
2023/06/26 13:52:38;;;;;;;9.20;3.77;;;32.30;1.00;;;;;;5013382;28;20462;-85
2023/06/26 13:58:28;;;;;;;17.90;4.03;;;32.30;1.00;;;;;;4975742;28;20964;-85
2023/06/26 14:01:32;;;;;;;6.77;3.40;;;31.80;1.00;;;;;;4987774;28;20464;-84
2023/06/26 14:04:14;;;;;;;6.60;3.30;;;31.80;1.00;;;;;;4982256;28;20433;-85
2023/06/26 14:07:20;;;;;;;10.77;3.50;;;31.70;1.00;;;;;;5009651;28;20799;-86
2023/06/26 14:09:45;;;;;;;6.13;3.70;;;31.60;1.00;;;;;;4987355;28;20449;-86
2023/06/26 14:15:58;;;;;;;6.10;2.97;;;31.30;1.00;;;;;;4997612;28;20243;-86
2023/06/26 14:18:32;;;;;;;4.60;3.10;;;31.40;1.00;;;;;;5004346;28;20787;-84
2023/06/26 14:21:38;;;;;;;7.23;2.90;;;31.40;1.00;;;;;;5014273;28;20430;-85
2023/06/26 14:27:25;;;;;;;5.83;2.97;;;31.40;1.00;;;;;;4998148;28;20475;-86
2023/06/26 14:37:02;;;;;;;9.80;2.60;;;32.30;1.00;;;;;;4997019;28;20782;-85
2023/06/26 14:40:14;;;;;;;5.50;2.70;;;32.20;1.00;;;;;;4975331;28;20426;-86
2023/06/26 14:42:45;;;;;;;4.23;2.73;;;32.10;1.00;;;;;;4998235;28;20444;-84
2023/06/26 14:45:20;;;;;;;3.57;2.33;;;32.10;1.00;;;;;;4993845;28;20472;-85
2023/06/26 14:54:32;;;;;;;7.90;2.43;;;32.30;1.00;;;;;;5002158;28;20499;-85
2023/06/26 15:03:42;;;;;;;9.63;2.33;;;31.80;1.00;;;;;;4999553;28;20406;-85
2023/06/26 15:09:38;;;;;;;2.73;2.10;;;32.10;1.00;;;;;;5004562;28;20204;-85
2023/06/26 15:15:44;;;;;;;16.27;2.07;;;32.20;1.00;;;;;;4988247;28;20487;-86
2023/06/26 15:18:32;;;;;;;4.10;2.03;;;33.30;1.00;;;;;;4997268;28;20939;-82
2023/06/26 15:21:02;;;;;;;11.93;1.73;;;34.40;1.00;;;;;;4991404;28;20421;-83
2023/06/26 15:23:33;;;;;;;3.87;1.83;;;34.80;1.00;;;;;;5000437;28;20436;-83
2023/06/26 15:26:14;;;;;;;2.60;1.70;;;34.60;1.00;;;;;;5006803;28;20465;-83
2023/06/26 15:28:40;;;;;;;2.23;1.63;;;34.30;1.00;;;;;;4991115;28;20407;-83
2023/06/26 15:31:08;;;;;;;3.00;1.63;;;35.20;1.00;;;;;;4994351;28;20429;-82
2023/06/26 15:33:50;;;;;;;3.83;1.83;;;35.50;1.00;;;;;;5017110;28;20181;-83
2023/06/26 15:36:26;;;;;;;4.60;1.70;;;35.90;1.00;;;;;;5009705;28;20955;-83
2023/06/26 15:39:02;;;;;;;2.63;1.37;;;36.50;1.00;;;;;;4997714;28;20407;-83
2023/06/26 15:41:28;;;;;;;3.17;1.63;;;36.50;1.00;;;;;;4989901;28;20420;-82
2023/06/26 15:43:56;;;;;;;3.03;1.70;;;37.00;1.00;;;;;;5006359;28;20490;-82
2023/06/26 15:46:26;;;;;;;2.97;1.53;;;37.40;1.00;;;;;;5008033;28;20895;-83
2023/06/26 15:48:56;;;;;;;2.37;1.23;;;37.60;1.00;;;;;;5016244;28;20954;-83
2023/06/26 15:51:37;;;;;;;3.83;1.90;;;37.90;1.00;;;;;;4999019;28;20965;-84
2023/06/26 15:54:08;;;;;;;6.10;1.63;;;37.20;1.00;;;;;;5002618;28;20440;-83
2023/06/26 15:56:50;;;;;;;9.50;1.70;;;37.80;1.00;;;;;;4983333;28;20522;-84
2023/06/26 15:59:20;;;;;;;1.80;1.53;;;38.20;1.00;;;;;;5005400;28;20520;-84
2023/06/26 16:01:56;;;;;;;5.47;1.90;;;38.60;1.00;;;;;;4997108;28;20451;-83
2023/06/26 16:04:44;;;;;;;3.90;1.60;;;39.00;1.00;;;;;;4994703;28;20446;-83
2023/06/26 16:07:14;;;;;;;6.97;1.50;;;39.30;1.00;;;;;;5008039;28;20455;-83
2023/06/26 16:09:57;;;;;;;6.33;1.50;;;39.20;1.00;;;;;;5005921;28;20849;-83
2023/06/26 16:12:23;;;;;;;7.70;1.30;;;39.30;1.00;;;;;;4997606;28;21233;-83
2023/06/26 16:14:50;;;;;;;5.20;1.50;;;39.50;1.00;;;;;;5004642;28;20508;-83
2023/06/26 16:24:00;;;;;;;4.63;1.53;;;37.30;1.00;;;;;;5005492;28;20411;-85
2023/06/26 16:26:50;;;;;;;4.87;1.50;;;36.80;1.00;;;;;;5013773;28;20536;-85